Nearby METAR Reports

 

KSEE - San Diego/Santee, California, USA
Distance from station: E 4mi, 6km
Updated: Sun, 27-Sep-2020 2:35am PDT
Overcast
Overcast
 Wind from calm
Wind: Calm
Temperature: 66°F , 19°C
Dew Point: 61°F , 16°C
Humidity: 83%
Barometer: 29.88 inHg , 1011.9 hPa
Clouds: Overcast
Visibility: 10 miles , 16 km
Cloud details: Overcast 1100 ft
2020/09/27 09:35 KSEE 270935Z AUTO 00000KT 10SM OVC011 19/16 A2988 RMK AO2
KMYF - San Diego/Mntgmy, California, USA
Distance from station: W 6mi, 10km
Updated: Sun, 27-Sep-2020 1:53am PDT
Overcast
Overcast
 Wind from calm
Wind: Calm
Temperature: 66°F , 19°C
Dew Point: 61°F , 16°C
Humidity: 83%
Barometer: 29.89 inHg , 1012.2 hPa
Clouds: Overcast
Visibility: 8 miles , 13 km
Cloud details: Overcast 800 ft
2020/09/27 08:53 KMYF 270853Z AUTO 00000KT 8SM OVC008 19/16 A2989 RMK AO2 SLP116 T01940161 58002
 
KNKX - Miramar Nas/San, California, USA
Distance from station: WNW 7mi, 11km
Updated: Sun, 27-Sep-2020 1:55am PDT
Overcast
Overcast
 Wind from S
Wind: S 5 mph , 7 km/h
Temperature: 64°F , 18°C
Dew Point: 63°F , 17°C
Humidity: 94%
Barometer: 29.88 inHg , 1011.9 hPa
Clouds: Overcast
Visibility: 9 miles , 14 km
Cloud details: Overcast 900 ft
2020/09/27 08:55 KNKX 270855Z 17004KT 9SM OVC009 18/17 A2988 RMK AO2 SLP113 T01780172 58002 $
KSAN - San Diego, California, USA
Distance from station: WSW 11mi, 17km
Updated: Sun, 27-Sep-2020 1:51am PDT
Overcast
Overcast
 Wind from calm
Wind: Calm
Temperature: 68°F , 20°C
Dew Point: 61°F , 16°C
Humidity: 78%
Barometer: 29.90 inHg , 1012.5 hPa
Clouds: Overcast
Visibility: 9 miles , 14 km
Cloud details: Overcast 1000 ft
2020/09/27 08:51 KSAN 270851Z 00000KT 9SM OVC010 20/16 A2990 RMK AO2 SLP123 T02000161 58003
 
KNZY - North Island Nas, California, USA
Distance from station: SW 13mi, 22km
Updated: Sun, 27-Sep-2020 2:16am PDT
Overcast
Overcast
 Wind from S
Wind: S 8 mph , 13 km/h
Temperature: 66°F , 19°C
Dew Point: 61°F , 16°C
Humidity: 83%
Barometer: 29.88 inHg , 1011.9 hPa
Clouds: Overcast
Visibility: 10 miles , 16 km
Cloud details: Overcast 900 ft
2020/09/27 09:16 KNZY 270916Z AUTO 19007KT 10SM OVC009 19/16 A2988 RMK AO2 T01940161
KRNM - Ramona, California, USA
Distance from station: NNE 16mi, 26km
Updated: Sun, 27-Sep-2020 1:53am PDT
Fog, Overcast
Fog, Overcast
 Wind from calm
Wind: Calm
Temperature: 57°F , 14°C
Dew Point: 57°F , 14°C
Humidity: 100%
Barometer: 29.90 inHg , 1012.5 hPa
Summary: Fog
Clouds: Overcast
Visibility: 1/4 mile , 0.4 km
Cloud details: Overcast 200 ft
2020/09/27 08:53 KRNM 270853Z AUTO 00000KT 1/4SM FG VV002 14/14 A2990 RMK AO2 SLP110 T01440144 58002
 
KSDM - San Diego/Brown, California, USA
Distance from station: S 16mi, 26km
Updated: Sun, 27-Sep-2020 2:21am PDT
Mist, Overcast
Mist, Overcast
 Wind from calm
Wind: Calm
Temperature: 64°F , 18°C
Dew Point: 61°F , 16°C
Humidity: 88%
Barometer: 29.88 inHg , 1011.9 hPa
Summary: Mist
Clouds: Overcast
Visibility: 5 miles , 8 km
Cloud details: Overcast 600 ft
2020/09/27 09:21 KSDM 270921Z AUTO 00000KT 5SM BR OVC006 18/16 A2988 RMK AO2 T01780156
KNRS - Imperial Beach, California, USA
Distance from station: SSW 18mi, 29km
Updated: Sun, 27-Sep-2020 1:56am PDT
Overcast
Overcast
 
Barometer: 29.89 inHg , 1012.2 hPa
Clouds: Overcast
Visibility: 7 miles , 11 km
Cloud details: Overcast 1200 ft
2020/09/27 08:56 KNRS 270856Z AUTO 7SM OVC012 A2989 RMK AO2 SLP123 50000 $
 
MMTJ - Tijuana Intl Arp, Mexico
Distance from station: S 20mi, 32km
Updated: Sun, 27-Sep-2020 1:44am PDT
Clear
Clear
 Wind from calm
Wind: Calm
Temperature: 64°F , 18°C
Dew Point: 57°F , 14°C
Humidity: 78%
Barometer: 29.92 inHg , 1013.2 hPa
Clouds: Clear
Visibility: 6 miles , 10 km
2020/09/27 08:44 MMTJ 270844Z 00000KT 6SM SKC 18/14 A2992 NOSIG RMK HZY MSG TX MMMX
KCRQ - Carlsbad, California, USA
Distance from station: NW 26mi, 43km
Updated: Sun, 27-Sep-2020 1:53am PDT
Overcast
Overcast
 Wind from calm
Wind: Calm
Temperature: 66°F , 19°C
Dew Point: 61°F , 16°C
Humidity: 83%
Barometer: 29.88 inHg , 1011.9 hPa
Clouds: Overcast
Visibility: 10 miles , 16 km
Cloud details: Overcast 900 ft
2020/09/27 08:53 KCRQ 270853Z AUTO 00000KT 10SM OVC009 19/16 A2988 RMK AO2 SLP114 T01890161 56001
 
KOKB - Oceanside, California, USA
Distance from station: NW 33mi, 54km
Updated: Sun, 27-Sep-2020 1:52am PDT
Overcast
Overcast
 Wind from calm
Wind: Calm
Temperature: 68°F , 20°C
Dew Point: 64°F , 18°C
Humidity: 88%
Barometer: 29.87 inHg , 1011.5 hPa
Clouds: Overcast
Visibility: 8 miles , 13 km
Cloud details: Overcast 1200 ft
2020/09/27 08:52 KOKB 270852Z AUTO 00000KT 8SM OVC012 20/18 A2987 RMK AO2 SLP115 T02000183 56002
KCZZ - Campo, California, USA
Distance from station: ESE 35mi, 56km
Updated: Sun, 27-Sep-2020 1:52am PDT

 Wind from NE
Wind: NE 7 mph , 11 km/h
Temperature: 54°F , 12°C
Dew Point: 41°F , 5°C
Humidity: 63%
Barometer: 29.92 inHg , 1013.2 hPa
2020/09/27 08:52 KCZZ 270852Z AUTO 04006KT 12/05 A2992 RMK AO1 SLP098 T01170050 58003
 
KNFG - Camp Pendleton, California, USA
Distance from station: NNW 37mi, 59km
Updated: Sun, 27-Sep-2020 1:55am PDT
Overcast
Overcast
 Wind from calm
Wind: Calm
Temperature: 70°F , 21°C
Dew Point: 61°F , 16°C
Humidity: 73%
Barometer: 29.88 inHg , 1011.9 hPa
Clouds: Overcast
Visibility: 9 miles , 14 km
Cloud details: Overcast 1100 ft
2020/09/27 08:55 KNFG 270855Z AUTO 00000KT 9SM OVC011 21/16 A2988 RMK AO2 SLP117 T02060156 55001
KRIV - Riverside/March, California, USA
Distance from station: N 74mi, 119km
Updated: Sun, 27-Sep-2020 1:58am PDT
Clear
Clear
 Wind from calm
Wind: Calm
Temperature: 61°F , 16°C
Dew Point: 55°F , 13°C
Humidity: 83%
Barometer: 29.90 inHg , 1012.5 hPa
Clouds: Clear
Visibility: 10 miles , 16 km
2020/09/27 08:58 KRIV 270858Z AUTO 00000KT 10SM CLR 16/13 A2990 RMK AO2 SLP112 T01560129 55001 PWINO $
 
KTRM - Thermal/Palm Spg, California, USA
Distance from station: NE 75mi, 121km
Updated: Mon, 31-Aug-2020 7:52am PDT
NOT Current
Few Clouds
Few Clouds
 Wind from NNW
Wind: NNW 6 mph , 9 km/h
Temperature: 86°F , 30°C
Heat Index: 88°F , 31°C
Dew Point: 64°F , 18°C
Humidity: 49%
Barometer: 29.75 inHg , 1007.5 hPa
Clouds: Few Clouds
Visibility: 8 miles , 13 km
Cloud details: Few Clouds 3300 ft
2020/08/31 14:52 KTRM 311452Z AUTO 34005KT 8SM FEW033 30/18 A2975 RMK AO2 SLP076 T03000178 51010
KPSP - Palm Springs, California, USA
Distance from station: NNE 76mi, 122km
Updated: Sun, 27-Sep-2020 1:53am PDT
Clear
Clear
 Wind from NNW
Wind: NNW 8 mph , 13 km/h
Temperature: 82°F , 28°C
Dew Point: 52°F , 11°C
Humidity: 35%
Barometer: 29.81 inHg , 1009.5 hPa
Clouds: Clear
Visibility: 10 miles , 16 km
2020/09/27 08:53 KPSP 270853Z AUTO 33007KT 10SM CLR 28/11 A2981 RMK AO2 SLP090 T02830111 51003
 
KSNA - Costa Mesa, California, USA
Distance from station: NW 76mi, 123km
Updated: Sun, 27-Sep-2020 1:53am PDT
Overcast
Overcast
 Wind from ESE
Wind: ESE 3 mph , 6 km/h
Temperature: 70°F , 21°C
Dew Point: 63°F , 17°C
Humidity: 78%
Barometer: 29.87 inHg , 1011.5 hPa
Clouds: Overcast
Visibility: 10 miles , 16 km
Cloud details: Overcast 1100 ft
2020/09/27 08:53 KSNA 270853Z AUTO 11003KT 10SM OVC011 21/17 A2987 RMK AO2 SLP114 T02060167 50000
KNJK - El Centro Naf, California, USA
Distance from station: E 79mi, 127km
Updated: Sat, 26-Sep-2020 2:56pm PDT
NOT Current
Clear
Clear
 Wind from E
Wind: E 7 mph , 11 km/h
Temperature: 102°F , 39°C
Dew Point: 52°F , 11°C
Humidity: 18%
Barometer: 29.76 inHg , 1007.8 hPa
Clouds: Clear
Visibility: 10 miles , 16 km
2020/09/26 21:56 KNJK 262156Z 10006KT 10SM CLR 39/11 A2976 RMK SLP095 T03880113
 
KAJO - Corona Muni, California, USA
Distance from station: NNW 82mi, 132km
Updated: Sun, 27-Sep-2020 1:56am PDT
Clear
Clear
 Wind from WSW
Wind: WSW 3 mph , 6 km/h
Temperature: 64°F , 18°C
Dew Point: 63°F , 17°C
Humidity: 94%
Barometer: 29.89 inHg , 1012.2 hPa
Clouds: Clear
Visibility: 10 miles , 16 km
2020/09/27 08:56 KAJO 270856Z AUTO 25003KT 10SM CLR 18/17 A2989 RMK AO2 SLP114 T01780167 50000